Time;durP1;ratioP1;P1;durP2;ratioP2;P2;SDS_P1;SDS_P2;PMS_P1;PMS_P2;Temp;Humidity;BMP_temperature;BMP_pressure;BME280_temperature;BME280_humidity;BME280_pressure;Samples;Min_cycle;Max_cycle;Signal;HPM_P1;HPM_P2
2022/09/16 00:02:00;;;;;;;8.37;2.20;;;;;;;;;;4988753;28;20215;-75
2022/09/16 00:04:27;;;;;;;5.63;1.70;;;;;;;;;;4987743;28;20209;-76
2022/09/16 00:06:54;;;;;;;4.83;1.90;;;;;;;;;;4987671;28;20278;-74
2022/09/16 00:09:21;;;;;;;5.43;1.87;;;;;;;;;;4985082;28;20292;-75
2022/09/16 00:11:49;;;;;;;5.53;1.60;;;;;;;;;;4985165;28;20225;-76
2022/09/16 00:14:16;;;;;;;8.93;1.60;;;;;;;;;;4984988;28;20229;-75
2022/09/16 00:16:44;;;;;;;5.93;2.07;;;;;;;;;;4987999;28;20209;-76
2022/09/16 00:19:12;;;;;;;7.00;1.70;;;;;;;;;;4985991;28;20202;-76
2022/09/16 00:21:39;;;;;;;4.37;1.83;;;;;;;;;;4984004;28;20214;-75
2022/09/16 00:24:06;;;;;;;6.27;2.10;;;;;;;;;;4984973;28;20593;-75
2022/09/16 00:26:34;;;;;;;5.60;2.03;;;;;;;;;;4983741;28;20552;-75
2022/09/16 00:29:02;;;;;;;6.60;2.60;;;;;;;;;;4988545;28;20313;-75
2022/09/16 00:31:29;;;;;;;7.50;2.27;;;;;;;;;;4985989;28;20301;-76
2022/09/16 00:33:57;;;;;;;9.23;2.17;;;;;;;;;;4989790;28;20225;-75
2022/09/16 00:36:24;;;;;;;7.70;2.07;;;;;;;;;;4984299;28;20236;-75
2022/09/16 00:38:52;;;;;;;6.17;1.90;;;;;;;;;;4989592;28;20699;-76
2022/09/16 00:41:20;;;;;;;4.67;1.80;;;;;;;;;;4985593;28;20205;-75
2022/09/16 00:43:49;;;;;;;5.43;2.10;;;;;;;;;;4985980;28;20193;-74
2022/09/16 00:46:16;;;;;;;5.03;2.23;;;;;;;;;;4984747;28;20205;-75
2022/09/16 00:48:44;;;;;;;5.30;1.93;;;;;;;;;;4989735;28;20235;-75
2022/09/16 00:51:13;;;;;;;5.13;2.13;;;;;;;;;;4985767;28;20202;-76
2022/09/16 00:53:42;;;;;;;6.90;2.00;;;;;;;;;;4987302;28;20230;-75
2022/09/16 00:56:11;;;;;;;6.33;2.20;;;;;;;;;;4989397;28;20212;-75
2022/09/16 00:58:40;;;;;;;7.77;1.77;;;;;;;;;;4989288;28;20224;-75
2022/09/16 01:01:08;;;;;;;11.50;2.20;;;;;;;;;;4987590;28;20587;-75
2022/09/16 01:03:37;;;;;;;5.43;1.87;;;;;;;;;;4988029;28;20291;-76
2022/09/16 01:06:05;;;;;;;6.87;1.70;;;;;;;;;;4990380;28;20212;-75
2022/09/16 01:08:33;;;;;;;4.80;1.70;;;;;;;;;;4986187;28;20304;-75
2022/09/16 01:11:00;;;;;;;11.63;2.10;;;;;;;;;;4985348;28;20296;-75
2022/09/16 01:13:28;;;;;;;7.33;2.00;;;;;;;;;;4986607;28;20315;-75
2022/09/16 01:15:59;;;;;;;8.23;1.77;;;;;;;;;;4991366;28;20874;-75
2022/09/16 01:18:32;;;;;;;8.30;1.70;;;;;;;;;;4987833;28;20712;-75
2022/09/16 01:21:12;;;;;;;6.40;1.83;;;;;;;;;;4987829;28;20636;-75
2022/09/16 01:23:58;;;;;;;8.57;2.00;;;;;;;;;;4992475;28;20300;-75
2022/09/16 01:26:34;;;;;;;4.03;1.30;;;;;;;;;;4985937;28;20215;-75
2022/09/16 01:29:20;;;;;;;6.90;1.70;;;;;;;;;;4989040;28;20247;-75
2022/09/16 01:31:51;;;;;;;4.43;1.60;;;;;;;;;;4982060;28;20651;-75
2022/09/16 01:34:21;;;;;;;10.13;1.73;;;;;;;;;;4991849;28;20716;-76
2022/09/16 01:36:50;;;;;;;8.23;1.40;;;;;;;;;;4987661;28;20296;-75
2022/09/16 01:39:24;;;;;;;7.43;1.60;;;;;;;;;;4987880;28;20668;-75
2022/09/16 01:41:58;;;;;;;12.27;1.70;;;;;;;;;;4989774;28;20200;-75
2022/09/16 01:44:28;;;;;;;4.43;1.00;;;;;;;;;;4988725;28;20204;-76
2022/09/16 01:46:59;;;;;;;3.97;1.53;;;;;;;;;;4986038;28;20220;-75
2022/09/16 01:49:31;;;;;;;7.37;1.53;;;;;;;;;;4984803;28;20212;-75
2022/09/16 01:52:03;;;;;;;14.23;1.67;;;;;;;;;;4988875;28;20209;-75
2022/09/16 01:54:33;;;;;;;4.20;1.17;;;;;;;;;;4986451;28;20225;-76
2022/09/16 01:57:03;;;;;;;7.87;1.80;;;;;;;;;;4987248;28;20224;-75
2022/09/16 01:59:34;;;;;;;5.37;1.47;;;;;;;;;;4988555;28;20586;-75
2022/09/16 02:02:05;;;;;;;9.03;1.67;;;;;;;;;;4987077;28;20213;-75
2022/09/16 02:04:34;;;;;;;6.77;1.37;;;;;;;;;;4987386;28;20199;-75
2022/09/16 02:07:02;;;;;;;7.03;1.80;;;;;;;;;;4988691;28;20229;-75
2022/09/16 02:09:31;;;;;;;2.93;1.00;;;;;;;;;;4990888;28;20219;-74
2022/09/16 02:11:59;;;;;;;6.67;1.50;;;;;;;;;;4985974;28;20213;-74
2022/09/16 02:14:28;;;;;;;11.30;1.80;;;;;;;;;;4985394;28;20588;-75
2022/09/16 02:16:59;;;;;;;5.30;1.40;;;;;;;;;;4988322;28;20718;-76
2022/09/16 02:19:30;;;;;;;10.97;2.00;;;;;;;;;;4986990;28;20216;-75
2022/09/16 02:21:58;;;;;;;8.23;1.80;;;;;;;;;;4983670;28;20217;-75
2022/09/16 02:24:27;;;;;;;8.13;1.83;;;;;;;;;;4985476;28;20663;-75
2022/09/16 02:26:58;;;;;;;5.03;1.50;;;;;;;;;;4987316;28;20220;-75
2022/09/16 02:29:27;;;;;;;4.33;1.60;;;;;;;;;;4986243;28;20213;-76
2022/09/16 02:31:56;;;;;;;6.10;1.53;;;;;;;;;;4984806;28;20205;-75
2022/09/16 02:34:25;;;;;;;7.10;1.73;;;;;;;;;;4984954;28;20235;-74
2022/09/16 02:36:55;;;;;;;4.20;1.10;;;;;;;;;;4991576;28;20209;-75
2022/09/16 02:39:27;;;;;;;6.87;1.33;;;;;;;;;;4984685;28;20292;-75
2022/09/16 02:41:55;;;;;;;5.90;1.43;;;;;;;;;;4983385;28;20219;-75
2022/09/16 02:44:23;;;;;;;8.57;1.50;;;;;;;;;;4987502;28;20205;-75
2022/09/16 02:46:54;;;;;;;4.97;1.40;;;;;;;;;;4986276;28;20215;-76
2022/09/16 02:49:27;;;;;;;4.37;1.50;;;;;;;;;;4982641;28;20212;-75
2022/09/16 02:51:58;;;;;;;9.97;2.00;;;;;;;;;;4982772;28;20206;-75
2022/09/16 02:54:29;;;;;;;6.47;1.70;;;;;;;;;;4987553;28;20221;-74
2022/09/16 02:56:57;;;;;;;6.80;1.40;;;;;;;;;;4987254;28;20223;-75
2022/09/16 02:59:24;;;;;;;13.97;2.50;;;;;;;;;;4986034;28;20209;-75
2022/09/16 03:01:51;;;;;;;7.93;1.60;;;;;;;;;;4987389;28;20204;-75
2022/09/16 03:04:19;;;;;;;6.93;1.53;;;;;;;;;;4993443;28;20201;-76
2022/09/16 03:06:47;;;;;;;6.63;1.83;;;;;;;;;;4988106;28;20217;-75
2022/09/16 03:09:17;;;;;;;8.77;1.50;;;;;;;;;;4989597;28;20200;-75
2022/09/16 03:12:01;;;;;;;4.00;1.50;;;;;;;;;;4991067;28;20264;-75
2022/09/16 03:14:44;;;;;;;5.10;1.60;;;;;;;;;;4989918;28;20229;-75
2022/09/16 03:17:17;;;;;;;5.07;1.50;;;;;;;;;;4989963;28;20236;-75
2022/09/16 03:19:50;;;;;;;4.77;1.40;;;;;;;;;;4986984;28;20554;-75
2022/09/16 03:22:19;;;;;;;6.67;1.50;;;;;;;;;;4990058;28;20295;-75
2022/09/16 03:24:55;;;;;;;9.00;1.83;;;;;;;;;;4993590;28;20205;-75
2022/09/16 03:27:29;;;;;;;5.27;1.43;;;;;;;;;;4988976;28;20229;-75
2022/09/16 03:29:59;;;;;;;4.17;1.50;;;;;;;;;;4992575;28;20226;-75
2022/09/16 03:32:30;;;;;;;5.97;1.23;;;;;;;;;;4993119;28;20640;-75
2022/09/16 03:35:01;;;;;;;4.07;1.47;;;;;;;;;;4990598;28;20233;-75
2022/09/16 03:37:33;;;;;;;4.03;1.40;;;;;;;;;;4990261;28;20319;-75
2022/09/16 03:40:05;;;;;;;3.33;1.30;;;;;;;;;;4988342;28;20205;-75
2022/09/16 03:42:32;;;;;;;5.20;1.53;;;;;;;;;;4994275;28;20714;-75
2022/09/16 03:44:59;;;;;;;4.30;1.37;;;;;;;;;;4989765;28;20201;-75
2022/09/16 03:47:26;;;;;;;6.30;1.50;;;;;;;;;;4993254;28;20707;-75
2022/09/16 03:49:53;;;;;;;8.70;1.40;;;;;;;;;;4990736;28;20209;-75
2022/09/16 03:52:20;;;;;;;12.27;1.40;;;;;;;;;;4992456;28;20201;-75
2022/09/16 03:54:47;;;;;;;5.63;1.27;;;;;;;;;;4993990;28;20229;-75
2022/09/16 03:57:16;;;;;;;6.00;1.50;;;;;;;;;;4991389;28;20231;-74
2022/09/16 03:59:43;;;;;;;5.63;1.43;;;;;;;;;;4990488;28;20213;-75
2022/09/16 04:02:10;;;;;;;4.90;1.20;;;;;;;;;;4990626;28;20212;-75
2022/09/16 04:04:37;;;;;;;8.20;1.33;;;;;;;;;;4986329;28;20580;-74
2022/09/16 04:07:04;;;;;;;8.97;1.43;;;;;;;;;;4988903;28;20240;-75
2022/09/16 04:09:32;;;;;;;11.93;1.60;;;;;;;;;;4984226;28;20211;-76
2022/09/16 04:11:59;;;;;;;7.30;1.57;;;;;;;;;;4984878;28;20236;-75
2022/09/16 04:14:27;;;;;;;10.33;1.37;;;;;;;;;;4990134;28;20232;-75
2022/09/16 04:16:55;;;;;;;4.30;1.30;;;;;;;;;;4987433;28;20232;-75
2022/09/16 04:19:22;;;;;;;3.97;1.13;;;;;;;;;;4990104;28;20572;-74
2022/09/16 04:21:49;;;;;;;3.70;1.63;;;;;;;;;;4987768;28;20197;-74
2022/09/16 04:24:16;;;;;;;6.07;1.33;;;;;;;;;;4986576;28;20208;-75
2022/09/16 04:26:43;;;;;;;8.77;1.47;;;;;;;;;;4985856;28;20584;-75
2022/09/16 04:29:10;;;;;;;3.50;1.43;;;;;;;;;;4990860;28;20219;-75
2022/09/16 04:31:39;;;;;;;7.70;1.63;;;;;;;;;;4989285;28;20619;-75
2022/09/16 04:34:06;;;;;;;7.03;2.57;;;;;;;;;;4986300;28;20699;-75
2022/09/16 04:36:33;;;;;;;11.33;2.50;;;;;;;;;;4990333;28;20213;-76
2022/09/16 04:39:00;;;;;;;9.43;2.80;;;;;;;;;;4988854;28;20206;-75
2022/09/16 04:41:28;;;;;;;3.67;2.20;;;;;;;;;;4991554;28;20304;-76
2022/09/16 04:43:55;;;;;;;10.17;2.47;;;;;;;;;;4987656;28;20738;-75
2022/09/16 04:46:23;;;;;;;9.13;2.67;;;;;;;;;;4987569;28;20213;-75
2022/09/16 04:48:52;;;;;;;10.83;2.67;;;;;;;;;;4987038;28;20218;-75
2022/09/16 04:54:23;;;;;;;7.67;2.30;;;;;;;;;;5004088;23;20295;-79
2022/09/16 04:56:51;;;;;;;7.57;2.20;;;;;;;;;;4965736;28;20677;-79
2022/09/16 04:59:18;;;;;;;6.90;3.10;;;;;;;;;;4972421;28;20206;-80
2022/09/16 05:01:45;;;;;;;8.77;2.37;;;;;;;;;;4972563;28;20204;-81
2022/09/16 05:10:27;;;;;;;11.33;3.57;;;;;;;;;;4971609;28;20189;-80
2022/09/16 05:12:55;;;;;;;11.27;4.37;;;;;;;;;;4973664;28;20212;-82
2022/09/16 05:15:22;;;;;;;8.60;2.87;;;;;;;;;;4985044;23;20233;-75
2022/09/16 05:17:50;;;;;;;9.10;3.60;;;;;;;;;;4988659;28;20229;-74
2022/09/16 05:20:17;;;;;;;9.87;5.00;;;;;;;;;;4986022;28;20561;-74
2022/09/16 05:22:44;;;;;;;20.47;5.43;;;;;;;;;;4987217;28;20209;-75
2022/09/16 05:25:12;;;;;;;11.23;5.40;;;;;;;;;;4983321;28;20207;-74
2022/09/16 05:27:40;;;;;;;17.30;5.80;;;;;;;;;;4989004;28;20221;-74
2022/09/16 05:30:09;;;;;;;12.70;5.07;;;;;;;;;;4984455;28;20216;-75
2022/09/16 05:32:36;;;;;;;15.77;4.80;;;;;;;;;;4985341;28;20216;-74
2022/09/16 05:35:03;;;;;;;10.80;4.90;;;;;;;;;;4985286;28;20221;-75
2022/09/16 05:37:33;;;;;;;11.30;4.80;;;;;;;;;;4983885;28;20314;-74
2022/09/16 05:40:01;;;;;;;9.07;4.63;;;;;;;;;;4983350;28;20435;-74
2022/09/16 05:42:28;;;;;;;10.43;4.87;;;;;;;;;;4986497;28;20691;-74
2022/09/16 05:44:56;;;;;;;10.13;4.40;;;;;;;;;;4985225;28;20193;-74
2022/09/16 05:47:23;;;;;;;10.43;4.00;;;;;;;;;;4989317;28;20233;-74
2022/09/16 05:49:53;;;;;;;9.60;4.57;;;;;;;;;;4989281;28;20223;-75
2022/09/16 05:52:20;;;;;;;12.23;4.03;;;;;;;;;;4987064;28;20320;-74
2022/09/16 05:54:47;;;;;;;8.93;4.20;;;;;;;;;;4988237;28;20316;-75
2022/09/16 05:57:15;;;;;;;9.13;4.23;;;;;;;;;;4987839;28;20239;-75
2022/09/16 05:59:42;;;;;;;6.80;3.90;;;;;;;;;;4987469;28;20209;-74
2022/09/16 06:02:12;;;;;;;10.63;3.90;;;;;;;;;;4986710;28;20316;-75
2022/09/16 06:04:39;;;;;;;5.30;3.20;;;;;;;;;;4989435;28;20299;-76
2022/09/16 06:07:06;;;;;;;8.30;3.07;;;;;;;;;;4987703;28;20235;-76
2022/09/16 06:09:33;;;;;;;4.17;2.20;;;;;;;;;;4985842;28;20209;-76
2022/09/16 06:12:00;;;;;;;3.77;1.70;;;;;;;;;;4985933;28;20200;-76
2022/09/16 06:14:27;;;;;;;7.40;1.50;;;;;;;;;;4985359;28;20726;-76
2022/09/16 06:16:55;;;;;;;3.20;1.30;;;;;;;;;;4983835;28;20243;-76
2022/09/16 06:19:23;;;;;;;6.63;1.80;;;;;;;;;;4985507;28;20205;-76
2022/09/16 06:21:50;;;;;;;6.53;1.33;;;;;;;;;;4988223;28;20675;-76
2022/09/16 06:24:18;;;;;;;5.43;1.10;;;;;;;;;;4987682;28;20212;-76
2022/09/16 06:26:46;;;;;;;6.03;1.30;;;;;;;;;;4987087;28;20216;-76
2022/09/16 06:29:14;;;;;;;4.63;1.17;;;;;;;;;;4984474;28;20555;-76
2022/09/16 06:31:41;;;;;;;4.43;1.20;;;;;;;;;;4990846;28;20209;-76
2022/09/16 06:34:09;;;;;;;8.17;1.27;;;;;;;;;;4983392;28;20292;-76
2022/09/16 06:36:38;;;;;;;4.43;1.10;;;;;;;;;;4982453;28;20248;-76
2022/09/16 06:39:06;;;;;;;6.90;1.60;;;;;;;;;;4990727;28;20292;-76
2022/09/16 06:41:33;;;;;;;8.67;1.57;;;;;;;;;;4992782;28;20213;-76
2022/09/16 06:44:01;;;;;;;7.33;1.40;;;;;;;;;;4990721;28;20200;-76
2022/09/16 06:46:29;;;;;;;7.30;2.17;;;;;;;;;;4988589;28;20232;-76
2022/09/16 06:48:57;;;;;;;9.77;2.40;;;;;;;;;;4988334;28;20231;-76
2022/09/16 06:51:24;;;;;;;9.53;2.67;;;;;;;;;;4986009;28;20728;-76
2022/09/16 06:53:55;;;;;;;6.87;2.97;;;;;;;;;;4988582;28;20207;-76
2022/09/16 06:56:22;;;;;;;7.80;3.40;;;;;;;;;;4988107;28;20320;-76
2022/09/16 06:58:51;;;;;;;11.80;3.83;;;;;;;;;;4990186;28;20220;-76
2022/09/16 07:01:19;;;;;;;10.77;3.80;;;;;;;;;;4987026;28;20264;-76
2022/09/16 07:03:47;;;;;;;10.70;4.13;;;;;;;;;;4987628;28;20551;-76
2022/09/16 07:06:15;;;;;;;12.53;4.10;;;;;;;;;;4988855;28;20232;-76
2022/09/16 07:08:42;;;;;;;10.30;4.57;;;;;;;;;;4989706;28;20217;-76
2022/09/16 07:11:13;;;;;;;9.57;4.50;;;;;;;;;;4987788;28;20313;-77
2022/09/16 07:13:40;;;;;;;7.47;3.77;;;;;;;;;;4986606;28;20217;-76
2022/09/16 07:16:08;;;;;;;5.93;3.37;;;;;;;;;;4988554;28;20221;-76
2022/09/16 07:18:36;;;;;;;9.10;3.67;;;;;;;;;;4991340;28;20723;-76
2022/09/16 07:21:03;;;;;;;9.17;3.07;;;;;;;;;;4989858;28;20291;-76
2022/09/16 07:23:31;;;;;;;8.37;3.20;;;;;;;;;;4989720;28;20201;-76
2022/09/16 07:26:02;;;;;;;8.80;2.60;;;;;;;;;;4987387;28;20209;-76
2022/09/16 07:28:31;;;;;;;7.97;2.70;;;;;;;;;;4986311;28;20228;-76
2022/09/16 07:31:00;;;;;;;5.03;2.50;;;;;;;;;;4986722;28;20814;-76
2022/09/16 07:33:27;;;;;;;6.20;2.17;;;;;;;;;;4987226;28;20648;-76
2022/09/16 07:35:58;;;;;;;5.27;1.90;;;;;;;;;;4986621;28;20232;-77
2022/09/16 07:38:25;;;;;;;5.43;2.30;;;;;;;;;;4986562;28;20237;-76
2022/09/16 07:40:52;;;;;;;7.70;2.10;;;;;;;;;;4989446;28;20664;-76
2022/09/16 07:43:19;;;;;;;7.60;2.50;;;;;;;;;;4988092;28;20693;-76
2022/09/16 07:45:48;;;;;;;4.37;2.30;;;;;;;;;;4990314;28;20200;-76
2022/09/16 07:48:15;;;;;;;6.97;3.30;;;;;;;;;;4987085;28;20231;-76
2022/09/16 07:50:42;;;;;;;8.60;3.70;;;;;;;;;;4982438;28;20216;-76
2022/09/16 07:53:09;;;;;;;10.40;3.80;;;;;;;;;;4987489;28;20715;-76
2022/09/16 07:55:36;;;;;;;11.07;3.70;;;;;;;;;;4992588;28;20228;-77
2022/09/16 07:58:04;;;;;;;13.10;3.77;;;;;;;;;;4983206;28;20229;-76
2022/09/16 08:00:31;;;;;;;7.80;3.60;;;;;;;;;;4984211;28;20201;-76
2022/09/16 08:02:59;;;;;;;12.80;4.10;;;;;;;;;;4983168;28;20210;-76
2022/09/16 08:05:26;;;;;;;8.17;3.47;;;;;;;;;;4986125;28;20208;-77
2022/09/16 08:07:53;;;;;;;6.77;3.63;;;;;;;;;;4984344;28;20513;-77
2022/09/16 08:10:21;;;;;;;10.10;3.63;;;;;;;;;;4986709;28;20237;-76
2022/09/16 08:12:48;;;;;;;10.07;4.27;;;;;;;;;;4988441;28;20247;-76
2022/09/16 08:15:15;;;;;;;8.43;4.17;;;;;;;;;;4984195;28;20221;-76
2022/09/16 08:17:42;;;;;;;8.60;3.50;;;;;;;;;;4989916;28;20745;-76
2022/09/16 08:20:11;;;;;;;10.67;4.03;;;;;;;;;;4986063;28;20198;-76
2022/09/16 08:22:38;;;;;;;8.77;4.13;;;;;;;;;;4991371;28;20209;-76
2022/09/16 08:25:05;;;;;;;8.33;4.30;;;;;;;;;;4987315;28;20215;-77
2022/09/16 08:27:35;;;;;;;7.57;4.00;;;;;;;;;;4985054;28;20309;-76
2022/09/16 08:30:02;;;;;;;6.93;3.67;;;;;;;;;;4983254;28;20212;-76
2022/09/16 08:32:30;;;;;;;11.03;3.60;;;;;;;;;;4985619;28;20668;-76
2022/09/16 08:34:57;;;;;;;5.90;3.20;;;;;;;;;;4984605;28;20204;-76
2022/09/16 08:37:26;;;;;;;6.97;3.60;;;;;;;;;;4984390;28;20235;-76
2022/09/16 08:39:53;;;;;;;10.13;3.70;;;;;;;;;;4983057;28;20324;-76
2022/09/16 08:42:31;;;;;;;5.63;2.80;;;;;;;;;;4985874;28;20204;-75
2022/09/16 08:45:04;;;;;;;6.37;3.27;;;;;;;;;;4986015;28;20244;-77
2022/09/16 08:47:37;;;;;;;6.20;2.70;;;;;;;;;;4985684;28;20657;-77
2022/09/16 08:50:06;;;;;;;7.57;3.37;;;;;;;;;;4987653;28;20764;-77
2022/09/16 08:52:36;;;;;;;8.97;3.00;;;;;;;;;;4986397;28;20659;-77
2022/09/16 08:55:06;;;;;;;7.33;3.37;;;;;;;;;;4987584;28;20685;-77
2022/09/16 08:57:35;;;;;;;5.23;3.60;;;;;;;;;;4985890;28;20232;-76
2022/09/16 09:00:08;;;;;;;6.03;3.67;;;;;;;;;;4983431;28;20209;-76
2022/09/16 09:02:40;;;;;;;11.60;3.43;;;;;;;;;;4984418;28;20216;-77
2022/09/16 09:05:14;;;;;;;7.67;3.70;;;;;;;;;;4982574;28;20680;-75
2022/09/16 09:07:49;;;;;;;11.33;3.93;;;;;;;;;;4982581;28;20718;-75
2022/09/16 09:10:23;;;;;;;9.23;3.80;;;;;;;;;;4988206;28;20204;-75
2022/09/16 09:12:55;;;;;;;6.87;3.77;;;;;;;;;;4981425;28;20209;-75
2022/09/16 09:15:35;;;;;;;16.87;5.00;;;;;;;;;;4982167;28;20217;-77
2022/09/16 09:18:11;;;;;;;16.17;4.60;;;;;;;;;;4987389;28;20225;-76
2022/09/16 09:20:46;;;;;;;12.23;4.07;;;;;;;;;;4984674;28;20287;-76
2022/09/16 09:23:21;;;;;;;9.27;4.17;;;;;;;;;;4987599;28;20206;-76
2022/09/16 09:25:52;;;;;;;9.40;4.40;;;;;;;;;;4984657;28;20209;-77
2022/09/16 09:28:26;;;;;;;8.87;5.00;;;;;;;;;;4984191;28;20225;-76
2022/09/16 09:30:56;;;;;;;6.63;4.33;;;;;;;;;;4985631;28;20201;-77
2022/09/16 09:33:27;;;;;;;6.87;4.43;;;;;;;;;;4983198;28;20205;-77
2022/09/16 09:36:01;;;;;;;8.00;4.43;;;;;;;;;;4985586;28;20702;-76
2022/09/16 09:38:45;;;;;;;13.47;4.70;;;;;;;;;;4987174;28;20304;-76
2022/09/16 09:41:15;;;;;;;6.27;3.83;;;;;;;;;;4987301;28;20295;-77
2022/09/16 09:43:44;;;;;;;7.53;3.40;;;;;;;;;;4986835;28;20216;-76
2022/09/16 09:46:13;;;;;;;5.67;3.60;;;;;;;;;;4985409;28;20656;-76
2022/09/16 09:48:43;;;;;;;7.20;2.53;;;;;;;;;;4985206;28;20217;-76
2022/09/16 09:51:13;;;;;;;10.73;2.70;;;;;;;;;;4985542;28;20327;-76
2022/09/16 09:53:45;;;;;;;4.50;2.17;;;;;;;;;;4987130;28;20209;-76
2022/09/16 09:56:15;;;;;;;12.00;2.90;;;;;;;;;;4985906;28;20229;-76
2022/09/16 09:58:45;;;;;;;4.67;2.03;;;;;;;;;;4985995;28;20308;-76
2022/09/16 10:01:12;;;;;;;4.47;2.00;;;;;;;;;;4986936;28;20211;-76
2022/09/16 10:03:39;;;;;;;4.70;2.23;;;;;;;;;;4986813;28;20197;-76
2022/09/16 10:06:06;;;;;;;5.33;2.80;;;;;;;;;;4982340;28;20618;-76
2022/09/16 10:08:36;;;;;;;5.77;2.37;;;;;;;;;;4981969;28;20221;-76
2022/09/16 10:11:15;;;;;;;4.73;2.40;;;;;;;;;;4986747;28;20589;-76
2022/09/16 10:13:48;;;;;;;7.93;2.90;;;;;;;;;;4985793;28;20193;-76
2022/09/16 10:16:19;;;;;;;3.57;2.47;;;;;;;;;;4985085;28;20232;-76
2022/09/16 10:18:53;;;;;;;6.17;2.40;;;;;;;;;;4987457;28;20326;-76
2022/09/16 10:21:20;;;;;;;3.67;2.23;;;;;;;;;;4984247;28;20207;-77
2022/09/16 10:23:54;;;;;;;6.00;2.60;;;;;;;;;;4988397;28;20200;-76
2022/09/16 10:26:23;;;;;;;7.70;3.53;;;;;;;;;;4986439;28;20219;-74
2022/09/16 10:28:54;;;;;;;10.93;2.93;;;;;;;;;;4985149;28;20232;-76
2022/09/16 10:31:22;;;;;;;6.73;3.33;;;;;;;;;;4985460;28;20205;-77
2022/09/16 10:33:49;;;;;;;6.87;2.87;;;;;;;;;;4984557;28;20556;-77
2022/09/16 10:36:19;;;;;;;4.33;2.47;;;;;;;;;;4984555;28;20313;-77
2022/09/16 10:38:48;;;;;;;5.07;2.90;;;;;;;;;;4982109;28;20726;-76
2022/09/16 10:41:16;;;;;;;5.57;2.33;;;;;;;;;;4984479;28;20205;-77
2022/09/16 10:43:49;;;;;;;3.43;1.90;;;;;;;;;;4982984;28;20215;-76
2022/09/16 10:46:17;;;;;;;5.27;1.80;;;;;;;;;;4987895;28;20208;-76
2022/09/16 10:48:44;;;;;;;1.57;1.23;;;;;;;;;;4985035;28;20252;-76
2022/09/16 10:51:21;;;;;;;2.40;1.50;;;;;;;;;;4985127;28;20591;-76
2022/09/16 10:53:53;;;;;;;4.03;1.20;;;;;;;;;;4985504;28;20211;-76
2022/09/16 10:56:20;;;;;;;2.53;1.00;;;;;;;;;;4985133;28;20225;-76
2022/09/16 10:58:49;;;;;;;2.97;1.27;;;;;;;;;;4984441;28;20715;-76
2022/09/16 11:01:25;;;;;;;2.20;1.03;;;;;;;;;;4985356;28;21510;-76
2022/09/16 11:04:14;;;;;;;4.33;1.17;;;;;;;;;;4988255;28;20211;-76
2022/09/16 11:06:48;;;;;;;2.97;1.20;;;;;;;;;;4962455;28;20205;-75
2022/09/16 11:09:22;;;;;;;3.10;0.97;;;;;;;;;;4986072;28;20201;-76
2022/09/16 11:11:55;;;;;;;3.30;0.90;;;;;;;;;;4986547;28;20232;-76
2022/09/16 11:14:30;;;;;;;1.27;0.70;;;;;;;;;;4984129;28;20676;-76
2022/09/16 11:17:08;;;;;;;1.80;0.80;;;;;;;;;;4984233;28;20228;-76
2022/09/16 11:19:38;;;;;;;3.77;0.80;;;;;;;;;;4986515;28;20241;-75
2022/09/16 11:22:10;;;;;;;1.33;0.60;;;;;;;;;;4985442;28;20212;-75
2022/09/16 11:24:52;;;;;;;3.97;0.83;;;;;;;;;;4989174;28;20227;-76
2022/09/16 11:27:24;;;;;;;2.70;0.97;;;;;;;;;;4989636;28;20729;-75
2022/09/16 11:30:02;;;;;;;3.37;0.80;;;;;;;;;;4990981;28;20201;-76
2022/09/16 11:32:36;;;;;;;5.70;1.30;;;;;;;;;;4987647;28;20204;-76
2022/09/16 11:35:16;;;;;;;9.23;2.43;;;;;;;;;;4989378;28;20220;-76
2022/09/16 11:37:46;;;;;;;1.57;0.90;;;;;;;;;;4985343;28;20324;-76
2022/09/16 11:40:18;;;;;;;2.27;1.07;;;;;;;;;;4986737;28;20208;-76
2022/09/16 11:42:51;;;;;;;3.67;1.13;;;;;;;;;;4986513;28;20538;-76
2022/09/16 11:45:30;;;;;;;1.57;0.83;;;;;;;;;;4986078;28;20667;-76
2022/09/16 11:48:04;;;;;;;3.70;0.83;;;;;;;;;;4990959;28;20212;-76
2022/09/16 11:50:37;;;;;;;3.97;1.07;;;;;;;;;;4989925;28;20291;-75
2022/09/16 11:53:22;;;;;;;3.00;0.83;;;;;;;;;;4990884;28;20216;-75
2022/09/16 11:55:52;;;;;;;2.13;0.93;;;;;;;;;;4985063;28;20690;-76
2022/09/16 11:58:24;;;;;;;2.53;0.97;;;;;;;;;;4987297;28;20235;-75
2022/09/16 12:00:55;;;;;;;2.70;1.10;;;;;;;;;;4984701;28;20300;-76
2022/09/16 12:03:26;;;;;;;4.27;1.10;;;;;;;;;;4983874;28;20651;-76
2022/09/16 12:05:55;;;;;;;2.17;1.10;;;;;;;;;;4985837;28;20213;-75
2022/09/16 12:08:24;;;;;;;2.40;1.00;;;;;;;;;;4981424;28;20727;-76
2022/09/16 12:10:54;;;;;;;3.13;1.00;;;;;;;;;;4986588;28;20201;-73
2022/09/16 12:13:23;;;;;;;7.50;1.00;;;;;;;;;;4985841;28;20210;-73
2022/09/16 12:15:52;;;;;;;1.93;0.90;;;;;;;;;;4987222;28;20217;-74
2022/09/16 12:18:22;;;;;;;2.40;0.80;;;;;;;;;;4983921;28;20234;-74
2022/09/16 12:20:52;;;;;;;4.47;0.80;;;;;;;;;;4982056;28;20211;-74
2022/09/16 12:23:21;;;;;;;2.93;0.97;;;;;;;;;;4984316;28;20201;-74
2022/09/16 12:25:56;;;;;;;2.07;0.60;;;;;;;;;;4985739;28;20603;-73
2022/09/16 12:28:25;;;;;;;3.03;0.67;;;;;;;;;;4984023;28;20232;-74
2022/09/16 12:30:56;;;;;;;2.63;0.50;;;;;;;;;;4983689;28;20499;-74
2022/09/16 12:33:26;;;;;;;5.40;0.70;;;;;;;;;;4988360;28;20220;-74
2022/09/16 12:35:55;;;;;;;1.90;0.50;;;;;;;;;;4984785;28;20683;-73
2022/09/16 12:38:23;;;;;;;1.87;0.70;;;;;;;;;;4985137;28;20225;-73
2022/09/16 12:40:59;;;;;;;4.77;0.73;;;;;;;;;;4981940;28;20212;-72
2022/09/16 12:43:39;;;;;;;5.03;0.83;;;;;;;;;;4987045;28;20212;-73
2022/09/16 12:46:24;;;;;;;3.40;0.90;;;;;;;;;;4985418;28;20296;-74
2022/09/16 12:49:12;;;;;;;2.73;0.70;;;;;;;;;;4983181;28;20714;-73
2022/09/16 12:51:54;;;;;;;0.93;0.67;;;;;;;;;;4989849;28;20205;-74
2022/09/16 12:54:31;;;;;;;2.47;0.70;;;;;;;;;;4983867;28;20736;-74
2022/09/16 12:57:10;;;;;;;7.57;0.87;;;;;;;;;;4987355;28;20242;-73
2022/09/16 12:59:51;;;;;;;2.40;0.80;;;;;;;;;;4986683;28;20207;-73
2022/09/16 13:02:20;;;;;;;3.10;0.57;;;;;;;;;;4985381;28;20717;-73
2022/09/16 13:04:48;;;;;;;2.13;0.80;;;;;;;;;;4988383;28;20221;-74
2022/09/16 13:07:24;;;;;;;10.17;0.73;;;;;;;;;;4985266;28;20237;-73
2022/09/16 13:10:01;;;;;;;1.30;0.60;;;;;;;;;;4988341;28;20205;-74
2022/09/16 13:12:29;;;;;;;3.73;0.40;;;;;;;;;;4982863;28;20207;-73
2022/09/16 13:14:57;;;;;;;2.30;0.50;;;;;;;;;;4982901;28;20581;-72
2022/09/16 13:17:28;;;;;;;3.90;0.30;;;;;;;;;;4985542;28;20324;-73
2022/09/16 13:19:56;;;;;;;0.60;0.30;;;;;;;;;;4981538;28;20674;-76
2022/09/16 13:22:28;;;;;;;1.07;0.40;;;;;;;;;;4985735;28;20204;-75
2022/09/16 13:24:58;;;;;;;2.60;0.40;;;;;;;;;;4986059;28;20250;-75
2022/09/16 13:27:27;;;;;;;1.10;0.50;;;;;;;;;;4988424;28;20227;-75
2022/09/16 13:30:06;;;;;;;2.67;0.50;;;;;;;;;;4989442;28;20205;-75
2022/09/16 13:32:38;;;;;;;4.00;0.57;;;;;;;;;;4982418;28;20205;-75
2022/09/16 13:35:06;;;;;;;3.77;0.50;;;;;;;;;;4987069;28;20231;-75
2022/09/16 13:37:35;;;;;;;2.17;0.63;;;;;;;;;;4984803;28;20233;-75
2022/09/16 13:40:18;;;;;;;5.90;0.70;;;;;;;;;;4985156;28;20209;-75
2022/09/16 13:42:46;;;;;;;1.00;0.50;;;;;;;;;;4986648;28;20663;-75
2022/09/16 13:45:33;;;;;;;5.57;0.60;;;;;;;;;;4985821;28;20217;-75
2022/09/16 13:48:02;;;;;;;1.63;0.50;;;;;;;;;;4982888;28;20593;-74
2022/09/16 13:50:30;;;;;;;3.27;0.70;;;;;;;;;;4982991;28;20205;-75
2022/09/16 13:53:09;;;;;;;1.03;0.67;;;;;;;;;;4988359;28;20200;-75
2022/09/16 13:55:38;;;;;;;0.97;0.40;;;;;;;;;;4989367;28;20300;-75
2022/09/16 13:58:08;;;;;;;1.37;0.50;;;;;;;;;;4986645;28;20243;-75
2022/09/16 14:00:38;;;;;;;0.60;0.40;;;;;;;;;;4986276;28;20248;-75
2022/09/16 14:03:29;;;;;;;1.83;0.60;;;;;;;;;;4981907;28;20211;-75
2022/09/16 14:06:11;;;;;;;1.97;0.70;;;;;;;;;;4989793;28;20207;-75
2022/09/16 14:08:45;;;;;;;0.97;0.40;;;;;;;;;;4971001;28;20592;-74
2022/09/16 14:11:16;;;;;;;0.90;0.50;;;;;;;;;;4981013;28;20208;-74
2022/09/16 14:13:44;;;;;;;1.10;0.50;;;;;;;;;;4985162;28;20205;-74
2022/09/16 14:16:15;;;;;;;1.77;0.63;;;;;;;;;;4983178;28;20298;-74
2022/09/16 14:18:43;;;;;;;0.90;0.50;;;;;;;;;;4985107;28;20245;-75
2022/09/16 14:21:18;;;;;;;2.07;0.40;;;;;;;;;;4985031;28;20213;-74
2022/09/16 14:23:47;;;;;;;2.97;0.90;;;;;;;;;;4984915;28;20206;-74
2022/09/16 14:26:15;;;;;;;6.47;1.63;;;;;;;;;;4985938;28;20682;-75
2022/09/16 14:28:42;;;;;;;2.87;0.60;;;;;;;;;;4981568;28;20220;-75
2022/09/16 14:31:11;;;;;;;3.03;0.90;;;;;;;;;;4986441;28;20213;-74
2022/09/16 14:33:41;;;;;;;3.27;0.70;;;;;;;;;;4987773;28;20619;-75
2022/09/16 14:36:10;;;;;;;1.63;0.63;;;;;;;;;;4986392;28;20208;-75
2022/09/16 14:38:39;;;;;;;3.07;0.60;;;;;;;;;;4986285;28;20873;-75
2022/09/16 14:41:08;;;;;;;2.53;0.60;;;;;;;;;;4983172;28;20567;-75
2022/09/16 14:43:37;;;;;;;2.47;0.70;;;;;;;;;;4984330;28;20211;-74
2022/09/16 14:46:06;;;;;;;1.73;0.60;;;;;;;;;;4985294;28;20217;-74
2022/09/16 14:48:41;;;;;;;1.17;0.90;;;;;;;;;;4983241;28;20225;-75
2022/09/16 14:51:12;;;;;;;1.63;0.80;;;;;;;;;;4984555;28;20200;-75
2022/09/16 14:53:39;;;;;;;1.60;0.70;;;;;;;;;;4986572;28;20209;-75
2022/09/16 14:56:18;;;;;;;1.77;0.50;;;;;;;;;;4983780;28;20201;-75
2022/09/16 14:58:45;;;;;;;0.60;0.40;;;;;;;;;;4982203;28;20225;-75
2022/09/16 15:01:17;;;;;;;1.63;0.57;;;;;;;;;;4989492;28;20207;-74
2022/09/16 15:03:47;;;;;;;0.40;0.30;;;;;;;;;;4986096;28;20205;-74
2022/09/16 15:06:17;;;;;;;2.17;0.60;;;;;;;;;;4989772;28;20749;-75
2022/09/16 15:08:46;;;;;;;1.80;0.47;;;;;;;;;;4990396;28;20244;-75